createdAt,value
2023-02-08T00:01:18.899Z,74.96
2023-02-08T00:03:47.433Z,74.96
2023-02-08T00:06:16.137Z,74.96
2023-02-08T00:08:45.849Z,74.81
2023-02-08T00:11:14.524Z,74.64
2023-02-08T00:13:44.091Z,74.52
2023-02-08T00:16:14.744Z,74.50
2023-02-08T00:18:43.288Z,74.45
2023-02-08T00:21:12.436Z,74.68
2023-02-08T00:23:40.781Z,74.64
2023-02-08T00:26:09.175Z,74.75
2023-02-08T00:28:38.269Z,75.00
2023-02-08T00:31:08.550Z,74.86
2023-02-08T00:33:37.207Z,74.82
2023-02-08T00:36:07.822Z,74.98
2023-02-08T00:38:36.493Z,74.96
2023-02-08T00:41:05.042Z,75.04
2023-02-08T00:43:33.285Z,75.04
2023-02-08T00:46:01.580Z,75.05
2023-02-08T00:48:31.711Z,75.01
2023-02-08T00:51:01.950Z,75.07
2023-02-08T00:53:30.641Z,74.92
2023-02-08T00:55:59.368Z,74.96
2023-02-08T00:58:27.713Z,75.02
2023-02-08T01:00:56.750Z,74.82
2023-02-08T01:03:25.818Z,74.92
2023-02-08T01:05:55.866Z,74.95
2023-02-08T01:08:24.509Z,74.89
2023-02-08T01:10:53.311Z,74.79
2023-02-08T01:13:23.563Z,75.02
2023-02-08T01:15:51.864Z,75.02
2023-02-08T01:18:20.086Z,74.86
2023-02-08T01:20:48.280Z,74.95
2023-02-08T01:23:17.923Z,75.12
2023-02-08T01:25:46.150Z,75.33
2023-02-08T01:28:14.394Z,75.33
2023-02-08T01:30:42.890Z,75.47
2023-02-08T01:33:11.367Z,75.50
2023-02-08T01:35:39.566Z,75.42
2023-02-08T01:38:07.791Z,75.36
2023-02-08T01:40:37.552Z,75.40
2023-02-08T01:43:11.599Z,75.41
2023-02-08T01:45:40.595Z,75.57
2023-02-08T01:48:14.617Z,75.67
2023-02-08T01:50:47.828Z,75.73
2023-02-08T01:53:17.184Z,75.64
2023-02-08T01:55:50.574Z,75.61
2023-02-08T01:58:20.719Z,75.62
2023-02-08T02:00:49.779Z,75.70
2023-02-08T02:03:20.187Z,75.84
2023-02-08T02:05:51.369Z,75.70
2023-02-08T02:08:19.852Z,75.60
2023-02-08T02:10:51.042Z,75.47
2023-02-08T02:13:21.738Z,75.42
2023-02-08T02:15:50.805Z,75.34
2023-02-08T02:18:24.355Z,75.34
2023-02-08T02:21:17.075Z,75.34
2023-02-08T02:24:16.060Z,75.48
2023-02-08T02:27:04.303Z,75.45
2023-02-08T02:29:50.448Z,75.37
2023-02-08T02:32:40.202Z,75.25
2023-02-08T02:35:16.669Z,75.36
2023-02-08T02:37:54.257Z,75.50
2023-02-08T02:40:29.109Z,75.36
2023-02-08T02:43:28.755Z,75.32
2023-02-08T02:46:03.569Z,75.34
2023-02-08T02:48:43.392Z,75.00
2023-02-08T02:51:15.600Z,74.82
2023-02-08T02:53:50.866Z,74.51
2023-02-08T02:56:22.431Z,74.42
2023-02-08T02:58:53.005Z,74.46
2023-02-08T03:01:26.128Z,74.52
2023-02-08T03:03:56.260Z,74.51
2023-02-08T03:06:37.828Z,74.38
2023-02-08T03:09:36.933Z,74.47
2023-02-08T03:12:16.889Z,74.44
2023-02-08T03:14:55.328Z,74.47
2023-02-08T03:17:35.737Z,74.59
2023-02-08T03:20:10.238Z,74.64
2023-02-08T03:22:52.934Z,74.71
2023-02-08T03:25:24.744Z,74.92
2023-02-08T03:28:02.292Z,74.96
2023-02-08T03:30:36.525Z,74.94
2023-02-08T03:33:12.148Z,75.06
2023-02-08T03:35:48.417Z,74.99
2023-02-08T03:38:23.181Z,75.02
2023-02-08T03:40:54.752Z,75.15
2023-02-08T03:43:29.098Z,75.20
2023-02-08T03:46:04.374Z,75.17
2023-02-08T03:48:34.563Z,75.12
2023-02-08T03:51:05.855Z,75.08
2023-02-08T03:53:38.377Z,75.14
2023-02-08T03:56:12.016Z,75.23
2023-02-08T03:58:44.592Z,75.30
2023-02-08T04:01:17.731Z,75.24
2023-02-08T04:03:48.799Z,75.33
2023-02-08T04:06:18.866Z,75.41
2023-02-08T04:08:47.194Z,75.48
2023-02-08T04:11:15.427Z,75.63
2023-02-08T04:13:46.372Z,75.43
2023-02-08T04:16:14.751Z,75.43
2023-02-08T04:18:43.030Z,75.44
2023-02-08T04:21:11.262Z,75.41
2023-02-08T04:23:40.893Z,75.38
2023-02-08T04:26:09.755Z,75.35
2023-02-08T04:28:38.400Z,75.34
2023-02-08T04:31:06.937Z,75.52
2023-02-08T04:33:35.219Z,75.69
2023-02-08T04:36:03.470Z,75.61
2023-02-08T04:38:31.727Z,75.60
2023-02-08T04:41:01.294Z,75.65
2023-02-08T04:43:29.621Z,75.67
2023-02-08T04:45:58.197Z,75.59
2023-02-08T04:48:26.446Z,75.65
2023-02-08T04:50:56.770Z,75.94
2023-02-08T04:53:25.301Z,75.75
2023-02-08T04:55:53.980Z,75.54
2023-02-08T04:58:24.104Z,75.54
2023-02-08T05:00:52.343Z,75.58
2023-02-08T05:03:21.890Z,75.69
2023-02-08T05:05:58.644Z,75.57
2023-02-08T05:08:27.298Z,75.63
2023-02-08T05:10:55.526Z,75.75
2023-02-08T05:13:25.081Z,75.70
2023-02-08T05:15:53.338Z,75.84
2023-02-08T05:18:21.582Z,75.78
2023-02-08T05:20:55.915Z,75.64
2023-02-08T05:23:24.503Z,75.63
2023-02-08T05:25:52.770Z,75.58
2023-02-08T05:28:21.371Z,75.62
2023-02-08T05:30:51.182Z,75.63
2023-02-08T05:33:19.741Z,75.57
2023-02-08T05:35:48.029Z,75.60
2023-02-08T05:38:16.225Z,75.55
2023-02-08T05:40:44.418Z,75.64
2023-02-08T05:43:12.615Z,75.69
2023-02-08T05:45:40.872Z,75.78
2023-02-08T05:48:10.487Z,75.77
2023-02-08T05:50:39.329Z,75.82
2023-02-08T05:53:11.203Z,75.72
2023-02-08T05:55:39.548Z,75.88
2023-02-08T05:58:07.921Z,75.87
2023-02-08T06:00:36.199Z,75.84
2023-02-08T06:03:04.561Z,75.86
2023-02-08T06:05:34.529Z,75.95
2023-02-08T06:08:02.735Z,75.96
2023-02-08T06:10:30.934Z,76.02
2023-02-08T06:12:59.664Z,75.90
2023-02-08T06:15:27.944Z,75.98
2023-02-08T06:17:56.342Z,75.84
2023-02-08T06:20:24.838Z,75.86
2023-02-08T06:22:54.468Z,75.89
2023-02-08T06:25:22.765Z,76.04
2023-02-08T06:27:50.987Z,76.12
2023-02-08T06:30:19.330Z,76.08
2023-02-08T06:32:47.562Z,76.12
2023-02-08T06:35:15.836Z,75.92
2023-02-08T06:37:44.062Z,76.00
2023-02-08T06:40:13.804Z,76.05
2023-02-08T06:42:42.964Z,76.05
2023-02-08T06:45:13.590Z,75.96
2023-02-08T06:47:42.107Z,76.00
2023-02-08T06:50:10.694Z,75.91
2023-02-08T06:52:39.739Z,75.87
2023-02-08T06:55:08.744Z,75.85
2023-02-08T06:57:38.363Z,75.91
2023-02-08T07:00:07.607Z,76.05
2023-02-08T07:02:35.961Z,76.02
2023-02-08T07:05:04.528Z,75.90
2023-02-08T07:07:32.899Z,75.85
2023-02-08T07:10:01.080Z,75.86
2023-02-08T07:12:29.316Z,75.80
2023-02-08T07:14:58.866Z,75.95
2023-02-08T07:17:27.100Z,76.12
2023-02-08T07:19:55.427Z,76.13
2023-02-08T07:22:23.635Z,76.07
2023-02-08T07:24:51.935Z,75.95
2023-02-08T07:27:20.162Z,75.85
2023-02-08T07:29:48.435Z,75.83
2023-02-08T07:32:18.016Z,75.80
2023-02-08T07:34:46.952Z,75.69
2023-02-08T07:37:15.395Z,75.72
2023-02-08T07:39:43.745Z,75.63
2023-02-08T07:42:12.282Z,75.49
2023-02-08T07:44:53.591Z,75.43
2023-02-08T07:47:23.156Z,75.44
2023-02-08T07:49:51.361Z,75.36
2023-02-08T07:52:19.584Z,75.23
2023-02-08T07:54:47.802Z,75.14
2023-02-08T07:57:21.109Z,75.08
2023-02-08T07:59:49.523Z,75.08
2023-02-08T08:02:18.714Z,74.97
2023-02-08T08:04:48.295Z,74.91
2023-02-08T08:07:16.505Z,74.82
2023-02-08T08:09:44.750Z,74.68
2023-02-08T08:12:12.969Z,74.57
2023-02-08T08:14:41.193Z,74.37
2023-02-08T08:17:09.769Z,74.28
2023-02-08T08:19:38.528Z,74.04
2023-02-08T08:22:08.144Z,74.09
2023-02-08T08:24:36.589Z,74.02
2023-02-08T08:27:05.660Z,74.04
2023-02-08T08:29:34.222Z,73.96
2023-02-08T08:32:02.915Z,73.82
2023-02-08T08:34:31.401Z,73.86
2023-02-08T08:37:00.224Z,73.73
2023-02-08T08:39:29.862Z,73.87
2023-02-08T08:41:59.308Z,73.80
2023-02-08T08:44:27.538Z,73.75
2023-02-08T08:46:56.956Z,73.70
2023-02-08T08:49:25.320Z,73.76
2023-02-08T08:51:53.721Z,73.69
2023-02-08T08:54:22.499Z,73.58
2023-02-08T08:56:52.085Z,73.55
2023-02-08T08:59:20.330Z,73.84
2023-02-08T09:01:48.616Z,73.94
2023-02-08T09:04:16.970Z,73.90
2023-02-08T09:06:45.206Z,74.24
2023-02-08T09:09:13.414Z,74.22
2023-02-08T09:11:41.660Z,74.19
2023-02-08T09:14:11.454Z,74.89
2023-02-08T09:16:41.863Z,75.00
2023-02-08T09:19:11.746Z,75.68
2023-02-08T09:21:41.294Z,75.44
2023-02-08T09:24:09.962Z,75.20
2023-02-08T09:26:39.843Z,75.44
2023-02-08T09:29:08.118Z,74.14
2023-02-08T09:31:39.535Z,74.63
2023-02-08T09:34:10.770Z,75.95
2023-02-08T09:36:41.513Z,75.61
2023-02-08T09:39:12.616Z,76.00
2023-02-08T09:42:13.896Z,77.47
2023-02-08T09:44:51.582Z,75.61
2023-02-08T09:47:24.757Z,75.75
2023-02-08T09:49:59.441Z,77.33
2023-02-08T09:52:33.785Z,75.36
2023-02-08T09:55:12.115Z,76.77
2023-02-08T09:57:41.116Z,76.71
2023-02-08T10:00:17.378Z,75.94
2023-02-08T10:02:49.932Z,76.66
2023-02-08T10:05:23.545Z,77.31
2023-02-08T10:07:51.901Z,75.35
2023-02-08T10:10:29.020Z,76.05
2023-02-08T10:13:10.004Z,75.92
2023-02-08T10:15:44.994Z,77.44
2023-02-08T10:18:30.230Z,77.48
2023-02-08T10:21:18.086Z,77.18
2023-02-08T10:23:59.549Z,75.12
2023-02-08T10:26:34.374Z,74.42
2023-02-08T10:29:21.323Z,74.76
2023-02-08T10:32:11.530Z,74.52
2023-02-08T10:34:46.958Z,73.90
2023-02-08T10:37:17.797Z,73.71
2023-02-08T10:39:46.667Z,74.68
2023-02-08T10:42:16.905Z,72.48
2023-02-08T10:44:56.812Z,74.33
2023-02-08T10:47:37.438Z,73.39
2023-02-08T10:50:13.415Z,93.73
2023-02-08T10:52:41.833Z,96.13
2023-02-08T10:55:15.840Z,94.25
2023-02-08T10:57:46.045Z,95.13
2023-02-08T11:00:20.328Z,95.35
2023-02-08T11:02:51.297Z,96.53
2023-02-08T11:05:25.180Z,96.07
2023-02-08T11:08:06.984Z,95.78
2023-02-08T11:10:36.910Z,97.44
2023-02-08T11:13:07.897Z,95.05
2023-02-08T11:15:41.732Z,99.80
2023-02-08T11:18:20.082Z,97.20
2023-02-08T11:20:53.115Z,97.65
2023-02-08T11:23:24.948Z,98.02
2023-02-08T11:25:54.229Z,96.64
2023-02-08T11:28:29.439Z,95.72
2023-02-08T11:31:00.397Z,97.02
2023-02-08T11:33:29.912Z,95.86
2023-02-08T11:36:03.927Z,93.70
2023-02-08T11:38:34.997Z,91.79
2023-02-08T11:41:05.512Z,90.28
2023-02-08T11:43:35.922Z,91.05
2023-02-08T11:46:06.572Z,89.76
2023-02-08T11:48:42.121Z,91.11
2023-02-08T11:51:15.184Z,90.58
2023-02-08T11:53:49.114Z,86.09
2023-02-08T11:56:20.000Z,87.01
2023-02-08T11:58:59.948Z,85.98
2023-02-08T12:01:30.227Z,87.61
2023-02-08T12:04:01.615Z,87.46
2023-02-08T12:07:15.485Z,87.41
2023-02-08T12:10:20.544Z,87.43
2023-02-08T12:12:59.938Z,85.69
2023-02-08T12:15:48.167Z,84.65
2023-02-08T12:18:44.835Z,83.49
2023-02-08T12:21:19.159Z,84.11
2023-02-08T12:23:54.802Z,81.07
2023-02-08T12:26:53.958Z,82.65
2023-02-08T12:29:45.639Z,82.31
2023-02-08T12:32:39.311Z,82.71
2023-02-08T12:36:03.151Z,81.57
2023-02-08T12:39:07.805Z,80.36
2023-02-08T12:41:53.711Z,81.39
2023-02-08T12:44:42.211Z,81.51
2023-02-08T12:47:28.292Z,80.58
2023-02-08T12:50:09.292Z,82.63
2023-02-08T12:52:42.049Z,82.51
2023-02-08T12:55:18.962Z,81.99
2023-02-08T12:57:54.042Z,82.36
2023-02-08T13:00:25.128Z,81.93
2023-02-08T13:03:02.241Z,83.74
2023-02-08T13:05:34.547Z,82.13
2023-02-08T13:08:09.920Z,81.88
2023-02-08T13:10:42.146Z,81.68
2023-02-08T13:13:19.101Z,84.06
2023-02-08T13:15:55.144Z,81.88
2023-02-08T13:18:26.282Z,81.88
2023-02-08T13:20:59.301Z,80.94
2023-02-08T13:23:33.356Z,81.65
2023-02-08T13:26:07.604Z,83.05
2023-02-08T13:28:37.555Z,79.94
2023-02-08T13:31:09.774Z,81.89
2023-02-08T13:33:59.262Z,81.16
2023-02-08T13:36:31.728Z,82.22
2023-02-08T13:39:01.467Z,83.31
2023-02-08T13:41:32.554Z,82.09
2023-02-08T13:44:05.726Z,80.40
2023-02-08T13:46:40.066Z,77.36
2023-02-08T13:49:08.490Z,81.75
2023-02-08T13:51:55.645Z,79.05
2023-02-08T13:54:23.955Z,80.04
2023-02-08T13:56:53.895Z,79.62
2023-02-08T13:59:34.109Z,77.79
2023-02-08T14:02:29.815Z,75.71
2023-02-08T14:05:31.338Z,74.62
2023-02-08T14:08:21.101Z,76.52
2023-02-08T14:11:02.896Z,74.17
2023-02-08T14:13:35.471Z,73.85
2023-02-08T14:16:29.751Z,75.07
2023-02-08T14:19:00.795Z,75.14
2023-02-08T14:21:38.118Z,76.79
2023-02-08T14:24:09.821Z,78.01
2023-02-08T14:26:38.491Z,75.63
2023-02-08T14:29:08.020Z,74.83
2023-02-08T14:31:40.730Z,74.79
2023-02-08T14:34:23.282Z,73.70
2023-02-08T14:37:02.377Z,74.47
2023-02-08T14:39:33.453Z,74.41
2023-02-08T14:42:05.633Z,74.54
2023-02-08T14:44:48.982Z,72.37
2023-02-08T14:48:04.162Z,71.38
2023-02-08T14:50:36.674Z,72.27
2023-02-08T14:53:16.819Z,71.86
2023-02-08T14:55:51.532Z,71.48
2023-02-08T14:58:28.312Z,72.56
2023-02-08T15:01:01.106Z,73.27
2023-02-08T15:03:33.219Z,72.35
2023-02-08T15:06:38.372Z,71.56
2023-02-08T15:09:07.694Z,71.11
2023-02-08T15:11:36.618Z,71.97
2023-02-08T15:14:06.074Z,71.42
2023-02-08T15:16:37.456Z,70.90
2023-02-08T15:19:09.306Z,71.19
2023-02-08T15:21:38.941Z,72.13
2023-02-08T15:24:16.173Z,73.04
2023-02-08T15:26:50.844Z,72.19
2023-02-08T15:29:24.639Z,71.82
2023-02-08T15:31:54.900Z,71.95
2023-02-08T15:34:27.098Z,72.68
2023-02-08T15:36:57.461Z,72.52
2023-02-08T15:39:33.825Z,71.91
2023-02-08T15:42:03.298Z,72.23
2023-02-08T15:44:33.810Z,73.36
2023-02-08T15:47:04.646Z,73.72
2023-02-08T15:49:37.796Z,74.37
2023-02-08T15:52:08.776Z,73.96
2023-02-08T15:54:37.086Z,75.31
2023-02-08T15:57:09.593Z,74.02
2023-02-08T15:59:40.895Z,73.17
2023-02-08T16:02:27.771Z,73.63
2023-02-08T16:04:57.920Z,73.93
2023-02-08T16:07:30.153Z,73.50
2023-02-08T16:09:58.964Z,73.91
2023-02-08T16:12:29.496Z,74.12
2023-02-08T16:14:58.290Z,74.38
2023-02-08T16:17:43.469Z,75.04
2023-02-08T16:20:32.567Z,75.69
2023-02-08T16:23:03.536Z,75.79
2023-02-08T16:25:38.481Z,76.81
2023-02-08T16:28:07.181Z,76.45
2023-02-08T16:30:35.773Z,77.19
2023-02-08T16:33:08.919Z,77.18
2023-02-08T16:35:40.345Z,77.49
2023-02-08T16:38:11.623Z,77.51
2023-02-08T16:40:51.741Z,78.35
2023-02-08T16:43:23.420Z,78.83
2023-02-08T16:46:22.101Z,79.17
2023-02-08T16:48:54.222Z,78.92
2023-02-08T16:51:27.197Z,79.62
2023-02-08T16:53:57.791Z,79.53
2023-02-08T16:56:26.280Z,79.91
2023-02-08T16:58:54.516Z,80.56
2023-02-08T17:01:24.551Z,80.30
2023-02-08T17:04:13.429Z,81.05
2023-02-08T17:07:01.767Z,79.92
2023-02-08T17:09:29.993Z,80.47
2023-02-08T17:11:58.270Z,80.97
2023-02-08T17:14:26.618Z,80.34
2023-02-08T17:16:54.844Z,80.58
2023-02-08T17:19:23.171Z,80.64
2023-02-08T17:21:51.435Z,81.20
2023-02-08T17:24:22.123Z,81.10
2023-02-08T17:26:50.396Z,81.65
2023-02-08T17:29:18.638Z,81.18
2023-02-08T17:31:47.147Z,81.52
2023-02-08T17:34:17.802Z,82.35
2023-02-08T17:36:46.048Z,81.12
2023-02-08T17:39:15.121Z,82.15
2023-02-08T17:41:44.696Z,82.44
2023-02-08T17:44:15.192Z,82.55
2023-02-08T17:46:43.867Z,82.24
2023-02-08T17:49:12.064Z,82.46
2023-02-08T17:51:40.892Z,82.50
2023-02-08T17:54:11.285Z,82.74
2023-02-08T17:56:39.658Z,82.89
2023-02-08T17:59:09.300Z,82.65
2023-02-08T18:01:38.625Z,82.64
2023-02-08T18:04:06.852Z,82.95
2023-02-08T18:06:35.092Z,82.66
2023-02-08T18:09:03.280Z,82.83
2023-02-08T18:11:31.542Z,83.21
2023-02-08T18:14:00.682Z,82.67
2023-02-08T18:16:30.854Z,83.03
2023-02-08T18:19:01.818Z,82.96
2023-02-08T18:21:33.056Z,82.55
2023-02-08T18:24:03.098Z,83.14
2023-02-08T18:26:33.616Z,83.21
2023-02-08T18:29:02.757Z,82.20
2023-02-08T18:31:33.201Z,82.10
2023-02-08T18:34:01.666Z,82.39
2023-02-08T18:36:29.923Z,82.05
2023-02-08T18:38:58.333Z,82.95
2023-02-08T18:41:28.526Z,83.10
2023-02-08T18:43:58.246Z,83.03
2023-02-08T18:46:28.961Z,81.12
2023-02-08T18:48:58.972Z,81.39
2023-02-08T18:51:27.972Z,78.50
2023-02-08T18:53:56.755Z,79.77
2023-02-08T18:56:26.366Z,79.86
2023-02-08T18:58:56.423Z,79.24
2023-02-08T19:01:25.488Z,78.28
2023-02-08T19:03:55.130Z,78.90
2023-02-08T19:06:26.746Z,78.92
2023-02-08T19:08:56.921Z,77.52
2023-02-08T19:11:27.216Z,76.65
2023-02-08T19:13:57.669Z,77.06
2023-02-08T19:16:27.664Z,76.28
2023-02-08T19:18:57.348Z,75.38
2023-02-08T19:21:27.469Z,75.88
2023-02-08T19:24:00.715Z,75.87
2023-02-08T19:26:31.903Z,75.39
2023-02-08T19:29:03.465Z,75.49
2023-02-08T19:31:32.117Z,75.67
2023-02-08T19:34:02.284Z,74.93
2023-02-08T19:36:34.160Z,75.70
2023-02-08T19:39:03.083Z,75.16
2023-02-08T19:41:33.379Z,75.54
2023-02-08T19:44:04.671Z,75.15
2023-02-08T19:46:34.656Z,75.50
2023-02-08T19:49:03.466Z,74.99
2023-02-08T19:51:34.781Z,75.07
2023-02-08T19:54:03.956Z,75.57
2023-02-08T19:56:33.851Z,74.96
2023-02-08T19:59:03.933Z,75.42
2023-02-08T20:01:33.241Z,75.28
2023-02-08T20:04:02.156Z,75.80
2023-02-08T20:06:34.688Z,75.07
2023-02-08T20:09:04.101Z,74.60
2023-02-08T20:11:34.377Z,74.53
2023-02-08T20:14:03.813Z,74.27
2023-02-08T20:16:32.993Z,74.14
2023-02-08T20:19:02.046Z,74.06
2023-02-08T20:21:30.516Z,74.36
2023-02-08T20:24:12.364Z,73.87
2023-02-08T20:26:43.589Z,74.65
2023-02-08T20:29:12.824Z,74.33
2023-02-08T20:31:44.518Z,74.40
2023-02-08T20:34:19.709Z,74.67
2023-02-08T20:37:06.966Z,74.56
2023-02-08T20:39:38.456Z,74.43
2023-02-08T20:42:07.448Z,74.47
2023-02-08T20:44:36.115Z,74.60
2023-02-08T20:47:04.483Z,74.60
2023-02-08T20:49:32.872Z,74.80
2023-02-08T20:52:01.420Z,74.83
2023-02-08T20:54:29.923Z,75.16
2023-02-08T20:56:59.571Z,75.41
2023-02-08T20:59:27.879Z,76.02
2023-02-08T21:01:56.197Z,76.11
2023-02-08T21:04:24.526Z,76.17
2023-02-08T21:06:53.489Z,75.89
2023-02-08T21:09:22.001Z,75.99
2023-02-08T21:11:51.362Z,75.64
2023-02-08T21:14:23.504Z,76.07
2023-02-08T21:16:53.889Z,76.08
2023-02-08T21:19:22.691Z,76.45
2023-02-08T21:21:51.948Z,76.56
2023-02-08T21:24:20.884Z,76.57
2023-02-08T21:26:49.216Z,76.45
2023-02-08T21:29:17.898Z,76.43
2023-02-08T21:31:51.497Z,76.39
2023-02-08T21:34:20.483Z,76.97
2023-02-08T21:36:49.147Z,76.40
2023-02-08T21:39:17.415Z,76.37
2023-02-08T21:41:45.731Z,76.73
2023-02-08T21:44:13.966Z,76.71
2023-02-08T21:46:42.393Z,77.04
2023-02-08T21:49:29.382Z,77.00
2023-02-08T21:52:14.914Z,76.95
2023-02-08T21:54:44.318Z,77.18
2023-02-08T21:57:15.722Z,77.29
2023-02-08T21:59:44.443Z,77.53
2023-02-08T22:02:16.319Z,77.40
2023-02-08T22:04:46.761Z,77.50
2023-02-08T22:07:15.360Z,77.34
2023-02-08T22:09:43.657Z,77.79
2023-02-08T22:12:15.021Z,77.63
2023-02-08T22:14:43.672Z,77.80
2023-02-08T22:17:12.231Z,77.64
2023-02-08T22:19:41.802Z,77.31
2023-02-08T22:22:12.395Z,77.46
2023-02-08T22:24:41.169Z,78.07
2023-02-08T22:27:13.657Z,77.84
2023-02-08T22:29:41.946Z,77.57
2023-02-08T22:32:11.010Z,76.92
2023-02-08T22:34:40.205Z,77.77
2023-02-08T22:37:08.502Z,77.09
2023-02-08T22:39:38.175Z,77.05
2023-02-08T22:42:12.016Z,76.50
2023-02-08T22:44:42.197Z,75.63
2023-02-08T22:47:12.016Z,75.83
2023-02-08T22:49:40.950Z,76.05
2023-02-08T22:52:09.944Z,76.90
2023-02-08T22:54:39.804Z,76.89
2023-02-08T22:57:09.708Z,77.10
2023-02-08T22:59:39.318Z,76.70
2023-02-08T23:02:07.756Z,76.60
2023-02-08T23:04:37.067Z,76.87
2023-02-08T23:07:05.794Z,76.39
2023-02-08T23:09:33.971Z,76.84
2023-02-08T23:12:03.728Z,76.40
2023-02-08T23:14:32.834Z,77.19
2023-02-08T23:17:01.177Z,75.79
2023-02-08T23:19:30.354Z,76.46
2023-02-08T23:22:00.468Z,75.97
2023-02-08T23:24:29.117Z,76.08
2023-02-08T23:26:57.367Z,76.28
2023-02-08T23:29:27.230Z,76.71
2023-02-08T23:31:55.528Z,76.53
2023-02-08T23:34:26.459Z,76.92
2023-02-08T23:36:54.869Z,76.38
2023-02-08T23:39:23.135Z,76.29
2023-02-08T23:41:51.522Z,76.54
2023-02-08T23:44:19.710Z,75.95
2023-02-08T23:46:49.374Z,76.43
2023-02-08T23:49:17.618Z,76.34
2023-02-08T23:51:45.892Z,76.41
2023-02-08T23:54:14.218Z,76.13
2023-02-08T23:56:42.398Z,76.18
2023-02-08T23:59:11.879Z,76.31
